Time;durP1;ratioP1;P1;durP2;ratioP2;P2;SDS_P1;SDS_P2;PMS_P1;PMS_P2;Temp;Humidity;BMP_temperature;BMP_pressure;BME280_temperature;BME280_humidity;BME280_pressure;Samples;Min_cycle;Max_cycle;Signal;HPM_P1;HPM_P2
2023/04/06 00:00:18;;;;;;;14.60;10.43;;;;;;;5.21;44.97;96422.53;4988372;28;20589;-68
2023/04/06 00:02:44;;;;;;;12.87;10.00;;;;;;;5.18;45.17;96420.00;4987006;28;20412;-68
2023/04/06 00:05:10;;;;;;;10.80;9.70;;;;;;;5.17;45.20;96420.03;4987956;28;20217;-69
2023/04/06 00:07:35;;;;;;;13.93;10.57;;;;;;;5.17;44.88;96423.47;4988060;28;20251;-69
2023/04/06 00:10:01;;;;;;;15.10;10.93;;;;;;;5.13;45.38;96416.66;4988097;28;20197;-69
2023/04/06 00:12:27;;;;;;;13.70;10.23;;;;;;;5.15;44.85;96411.41;4988281;28;20169;-69
2023/04/06 00:14:52;;;;;;;10.63;9.53;;;;;;;5.07;45.13;96417.63;4986818;28;20514;-68
2023/04/06 00:17:18;;;;;;;11.27;9.93;;;;;;;5.09;45.60;96415.00;4988178;28;20538;-68
2023/04/06 00:19:43;;;;;;;11.60;9.30;;;;;;;5.19;44.50;96410.47;4988257;28;20698;-70
2023/04/06 00:22:09;;;;;;;14.57;10.33;;;;;;;5.21;45.28;96409.53;4988161;28;20510;-68
2023/04/06 00:24:34;;;;;;;15.37;9.90;;;;;;;5.21;45.26;96412.13;4988129;28;20169;-68
2023/04/06 00:27:01;;;;;;;15.80;10.43;;;;;;;5.06;45.05;96412.50;4987522;28;20614;-68
2023/04/06 00:29:26;;;;;;;11.90;10.57;;;;;;;5.04;45.93;96401.25;4987563;28;20207;-67
2023/04/06 00:31:52;;;;;;;10.23;9.23;;;;;;;4.94;45.60;96405.81;4987749;28;20428;-69
2023/04/06 00:34:17;;;;;;;12.23;10.57;;;;;;;5.01;45.84;96407.38;4987808;28;20173;-68
2023/04/06 00:36:42;;;;;;;15.33;10.60;;;;;;;4.96;45.85;96404.03;4987578;28;20161;-67
2023/04/06 00:39:08;;;;;;;12.83;11.47;;;;;;;5.04;45.31;96402.09;4987740;28;20526;-69
2023/04/06 00:41:34;;;;;;;15.90;11.57;;;;;;;4.94;45.49;96404.94;4987270;28;20655;-68
2023/04/06 00:43:59;;;;;;;11.83;9.60;;;;;;;4.90;44.92;96400.72;4987457;28;20627;-68
2023/04/06 00:46:25;;;;;;;12.33;10.43;;;;;;;4.82;45.08;96399.13;4987471;28;20173;-68
2023/04/06 00:48:50;;;;;;;12.90;11.40;;;;;;;4.77;44.70;96393.16;5002839;28;20705;-68
2023/04/06 00:51:16;;;;;;;15.00;10.60;;;;;;;4.80;44.91;96398.31;4987539;28;20211;-68
2023/04/06 00:53:41;;;;;;;11.53;10.27;;;;;;;4.80;44.89;96393.09;4987455;28;20288;-67
2023/04/06 00:56:09;;;;;;;14.20;11.10;;;;;;;4.88;44.71;96387.72;4987111;28;20752;-67
2023/04/06 00:58:38;;;;;;;21.33;11.43;;;;;;;4.67;45.29;96389.88;4987443;28;20220;-67
2023/04/06 01:01:04;;;;;;;11.20;10.10;;;;;;;4.58;45.50;96387.50;4987416;28;20412;-67
2023/04/06 01:03:29;;;;;;;15.30;10.20;;;;;;;4.38;46.08;96395.69;4987488;28;20476;-67
2023/04/06 01:05:58;;;;;;;13.37;9.90;;;;;;;4.45;46.50;96397.28;4987131;28;20172;-67
2023/04/06 01:08:24;;;;;;;11.90;9.87;;;;;;;4.50;46.61;96398.94;4987621;28;20893;-67
2023/04/06 01:10:50;;;;;;;13.90;10.50;;;;;;;4.43;46.32;96399.03;4986257;28;20424;-68
2023/04/06 01:13:15;;;;;;;13.33;10.97;;;;;;;4.38;47.23;96390.47;4987568;28;20426;-68
2023/04/06 01:15:41;;;;;;;16.60;9.77;;;;;;;4.26;46.94;96385.53;4987694;28;20235;-68
2023/04/06 01:18:10;;;;;;;20.47;10.70;;;;;;;4.00;47.25;96392.06;4990661;28;20288;-67
2023/04/06 01:20:36;;;;;;;11.70;9.50;;;;;;;3.83;48.12;96399.31;4991003;28;20429;-68
2023/04/06 01:23:01;;;;;;;13.27;11.40;;;;;;;3.89;48.57;96404.38;4990965;28;20451;-68
2023/04/06 01:25:27;;;;;;;15.30;10.67;;;;;;;3.86;49.22;96399.25;4991153;28;20161;-68
2023/04/06 01:27:52;;;;;;;10.90;9.80;;;;;;;3.87;49.62;96387.97;4990240;28;20185;-68
2023/04/06 01:30:18;;;;;;;11.53;10.40;;;;;;;3.79;49.75;96389.84;4990675;28;20689;-68
2023/04/06 01:32:44;;;;;;;15.47;11.30;;;;;;;3.58;50.23;96391.91;4990619;28;20231;-68
2023/04/06 01:35:10;;;;;;;15.50;11.30;;;;;;;3.57;50.35;96381.59;4990462;28;20255;-68
2023/04/06 01:37:36;;;;;;;19.70;11.13;;;;;;;3.77;49.97;96379.50;4990245;28;21247;-68
2023/04/06 01:40:02;;;;;;;12.23;10.30;;;;;;;3.76;49.89;96377.78;4990193;28;20217;-68
2023/04/06 01:42:28;;;;;;;16.20;10.43;;;;;;;3.51;51.01;96382.53;4990343;28;20414;-68
2023/04/06 01:44:53;;;;;;;14.10;9.87;;;;;;;3.30;51.69;96372.50;4989099;28;20484;-68
2023/04/06 01:47:19;;;;;;;13.63;11.27;;;;;;;2.86;53.12;96377.47;4990208;28;20188;-68
2023/04/06 01:49:44;;;;;;;14.27;10.10;;;;;;;3.10;52.77;96372.81;4990053;28;20616;-68
2023/04/06 01:52:10;;;;;;;14.90;11.83;;;;;;;3.28;52.32;96372.50;4990732;28;20776;-69
2023/04/06 01:54:35;;;;;;;13.13;10.80;;;;;;;3.29;52.03;96368.22;4990395;28;20204;-69
2023/04/06 01:57:01;;;;;;;12.40;10.70;;;;;;;3.27;52.80;96368.22;4989843;28;20168;-69
2023/04/06 01:59:26;;;;;;;15.33;11.57;;;;;;;3.41;52.51;96372.34;4990132;28;20276;-69
2023/04/06 02:01:52;;;;;;;15.30;11.40;;;;;;;3.56;52.14;96366.88;4990147;28;20260;-69
2023/04/06 02:04:17;;;;;;;11.97;10.87;;;;;;;3.49;52.48;96362.69;4990272;28;20644;-69
2023/04/06 02:06:42;;;;;;;14.03;12.53;;;;;;;3.43;53.20;96366.25;4990029;28;20643;-69
2023/04/06 02:09:08;;;;;;;18.70;12.00;;;;;;;3.63;53.01;96359.88;4989897;28;20239;-68
2023/04/06 02:11:33;;;;;;;18.73;12.33;;;;;;;3.51;53.36;96359.19;4989788;28;20671;-68
2023/04/06 02:14:00;;;;;;;14.57;12.03;;;;;;;3.36;53.78;96360.28;4988487;28;20240;-67
2023/04/06 02:16:26;;;;;;;15.50;10.87;;;;;;;3.17;54.30;96359.72;4989706;28;21163;-67
2023/04/06 02:18:51;;;;;;;12.77;11.30;;;;;;;3.15;55.27;96360.63;4989870;28;20434;-67
2023/04/06 02:21:19;;;;;;;15.13;11.43;;;;;;;3.23;54.74;96368.28;4989759;28;20239;-68
2023/04/06 02:23:46;;;;;;;13.93;10.83;;;;;;;3.30;54.46;96367.31;4989602;28;20173;-67
2023/04/06 02:26:12;;;;;;;13.97;11.93;;;;;;;3.40;53.41;96371.47;4989558;28;20913;-68
2023/04/06 02:28:37;;;;;;;13.90;12.33;;;;;;;3.30;54.17;96364.72;4989007;28;20424;-68
2023/04/06 02:31:03;;;;;;;13.90;10.97;;;;;;;3.17;54.61;96358.88;4989527;28;20329;-68
2023/04/06 02:33:29;;;;;;;12.83;11.50;;;;;;;3.18;54.66;96355.41;4989527;28;20173;-67
2023/04/06 02:35:54;;;;;;;13.23;11.90;;;;;;;3.16;54.78;96358.00;4988969;28;20236;-67
2023/04/06 02:38:20;;;;;;;16.97;13.10;;;;;;;3.27;54.67;96362.19;4989131;28;20199;-67
2023/04/06 02:40:45;;;;;;;15.57;12.50;;;;;;;3.12;55.44;96358.09;4989174;28;20283;-69
2023/04/06 02:43:11;;;;;;;14.83;12.27;;;;;;;3.17;55.75;96361.47;4989340;28;20304;-68
2023/04/06 02:45:36;;;;;;;16.97;12.47;;;;;;;3.07;56.15;96355.59;4989125;28;20164;-68
2023/04/06 02:48:17;;;;;;;18.27;13.03;;;;;;;3.15;55.90;96352.88;4989491;28;20615;-68
2023/04/06 02:50:52;;;;;;;17.40;13.13;;;;;;;2.81;56.86;96352.50;4988877;28;20227;-68
2023/04/06 02:53:21;;;;;;;13.97;12.00;;;;;;;2.79;56.56;96343.88;4990456;28;20414;-68
2023/04/06 02:56:00;;;;;;;15.43;12.90;;;;;;;3.06;55.87;96355.59;4990120;28;20478;-68
2023/04/06 02:58:30;;;;;;;17.80;13.00;;;;;;;3.05;55.02;96352.16;4989460;28;20440;-68
2023/04/06 03:01:04;;;;;;;13.93;11.97;;;;;;;2.80;56.48;96349.06;4990659;28;20404;-68
2023/04/06 03:03:33;;;;;;;14.13;12.00;;;;;;;2.61;56.83;96355.38;4990868;28;20504;-68
2023/04/06 03:06:04;;;;;;;16.80;12.20;;;;;;;2.54;57.40;96367.53;4988396;28;20424;-68
2023/04/06 03:08:30;;;;;;;15.43;13.10;;;;;;;2.25;57.78;96365.31;4990052;28;20432;-68
2023/04/06 03:10:55;;;;;;;14.00;12.50;;;;;;;2.44;57.03;96355.59;4990324;28;20412;-68
2023/04/06 03:13:34;;;;;;;14.50;13.00;;;;;;;2.61;57.19;96353.63;4988627;28;20173;-68
2023/04/06 03:16:00;;;;;;;20.00;13.07;;;;;;;2.63;56.74;96356.22;4989723;28;20497;-68
2023/04/06 03:18:44;;;;;;;17.77;13.63;;;;;;;2.66;56.00;96356.16;4990005;28;20431;-68
2023/04/06 03:21:15;;;;;;;17.80;14.20;;;;;;;2.81;55.53;96358.56;5004828;28;20171;-68
2023/04/06 03:23:46;;;;;;;20.23;13.00;;;;;;;2.78;55.30;96361.16;4988386;28;20416;-69
2023/04/06 03:26:11;;;;;;;16.07;12.27;;;;;;;2.96;55.75;96360.91;4986852;28;21023;-68
2023/04/06 03:28:37;;;;;;;23.70;13.13;;;;;;;2.95;54.99;96347.97;4988830;28;20424;-68
2023/04/06 03:31:05;;;;;;;14.83;11.20;;;;;;;2.75;54.96;96350.84;4988593;28;20772;-69
2023/04/06 03:33:31;;;;;;;15.40;12.23;;;;;;;2.49;55.65;96356.38;4988686;28;20180;-68
2023/04/06 03:35:56;;;;;;;18.80;13.73;;;;;;;2.26;56.75;96362.69;4988301;28;20967;-69
2023/04/06 03:38:22;;;;;;;14.13;12.53;;;;;;;1.90;57.29;96361.38;4988589;28;20196;-67
2023/04/06 03:40:47;;;;;;;15.90;12.60;;;;;;;1.55;58.63;96366.91;4987575;28;20220;-68
2023/04/06 03:43:13;;;;;;;15.60;12.80;;;;;;;1.56;59.23;96373.78;4988593;28;20177;-68
2023/04/06 03:45:38;;;;;;;14.20;12.57;;;;;;;2.12;56.82;96369.78;4988448;28;20271;-67
2023/04/06 03:48:05;;;;;;;14.23;12.50;;;;;;;2.20;56.14;96369.69;4988375;28;20173;-68
2023/04/06 03:50:53;;;;;;;18.83;12.40;;;;;;;2.36;55.93;96372.94;4988491;28;20169;-68
2023/04/06 03:53:19;;;;;;;16.03;12.13;;;;;;;2.20;56.12;96378.31;4966372;28;20444;-68
2023/04/06 03:55:44;;;;;;;17.70;12.80;;;;;;;2.32;56.07;96385.09;4966076;28;20840;-68
2023/04/06 03:58:19;;;;;;;25.53;16.07;;;;;;;2.21;55.97;96372.25;4966123;28;20651;-68
2023/04/06 04:00:45;;;;;;;13.60;12.20;;;;;;;1.88;57.35;96369.16;4966550;28;20878;-68
2023/04/06 04:03:10;;;;;;;18.30;12.57;;;;;;;1.93;57.07;96374.28;4966445;28;20468;-67
2023/04/06 04:05:36;;;;;;;27.23;16.80;;;;;;;2.13;56.18;96366.31;4966782;28;20654;-68
2023/04/06 04:08:07;;;;;;;20.30;13.90;;;;;;;2.32;55.68;96372.13;4966900;28;20209;-69
2023/04/06 04:10:32;;;;;;;22.43;12.70;;;;;;;2.32;55.42;96370.41;4966992;28;20614;-68
2023/04/06 04:12:58;;;;;;;17.70;12.90;;;;;;;1.96;56.86;96374.28;4966356;28;20417;-68
2023/04/06 04:15:23;;;;;;;18.87;12.20;;;;;;;2.43;56.79;96374.59;4966557;28;20757;-68
2023/04/06 04:17:50;;;;;;;21.87;12.73;;;;;;;2.54;56.31;96370.97;4965913;28;20185;-68
2023/04/06 04:20:16;;;;;;;13.47;11.17;;;;;;;2.65;56.29;96370.84;4966024;28;20284;-68
2023/04/06 04:22:41;;;;;;;25.00;12.53;;;;;;;2.64;55.96;96373.47;4965989;28;20435;-68
2023/04/06 04:25:10;;;;;;;22.33;12.87;;;;;;;2.56;56.02;96381.34;4966296;28;20178;-68
2023/04/06 04:27:44;;;;;;;15.33;10.53;;;;;;;2.46;55.46;96375.41;4966160;28;20247;-68
2023/04/06 04:30:13;;;;;;;13.77;11.87;;;;;;;2.45;54.53;96375.44;4975630;28;20966;-68
2023/04/06 04:32:39;;;;;;;22.33;12.60;;;;;;;2.10;56.53;96381.88;4986787;28;20420;-68
2023/04/06 04:35:19;;;;;;;16.93;12.93;;;;;;;1.66;57.98;96388.38;4986833;28;20472;-68
2023/04/06 04:37:45;;;;;;;24.73;14.33;;;;;;;1.85;57.73;96386.47;4981767;28;20181;-68
2023/04/06 04:40:31;;;;;;;18.30;13.33;;;;;;;1.59;58.02;96392.72;4973019;28;20842;-68
2023/04/06 04:42:56;;;;;;;26.70;13.53;;;;;;;1.81;57.83;96389.94;4907588;29;20195;-69
2023/04/06 04:45:22;;;;;;;35.57;16.90;;;;;;;1.77;58.55;96391.72;4924035;29;20980;-68
2023/04/06 04:47:47;;;;;;;20.90;14.60;;;;;;;2.17;56.65;96380.91;4926238;29;20198;-68
2023/04/06 04:50:13;;;;;;;21.83;15.00;;;;;;;2.43;55.17;96390.13;4927691;29;20797;-68
2023/04/06 04:52:38;;;;;;;19.13;12.43;;;;;;;2.54;55.06;96386.53;4914081;29;20554;-68
2023/04/06 04:55:04;;;;;;;20.33;12.20;;;;;;;2.54;54.79;96394.28;4930985;29;20265;-67
2023/04/06 04:57:29;;;;;;;25.90;13.10;;;;;;;2.42;54.95;96396.19;4930809;29;20254;-68
2023/04/06 04:59:55;;;;;;;20.30;13.20;;;;;;;1.98;55.72;96388.03;4930245;29;20222;-68
2023/04/06 05:02:20;;;;;;;19.50;11.83;;;;;;;2.31;54.91;96389.38;4938643;29;20631;-70
2023/04/06 05:04:46;;;;;;;14.53;11.83;;;;;;;2.49;53.52;96397.84;4950942;29;20182;-68
2023/04/06 05:07:11;;;;;;;19.87;11.83;;;;;;;2.75;53.22;96397.50;4940194;29;20194;-68
2023/04/06 05:09:37;;;;;;;13.67;11.87;;;;;;;2.90;52.60;96401.59;4931824;29;20328;-68
2023/04/06 05:12:02;;;;;;;18.17;11.57;;;;;;;3.12;52.87;96399.59;4931276;29;20183;-68
2023/04/06 05:14:28;;;;;;;19.33;13.10;;;;;;;2.70;53.41;96397.56;4930358;29;20616;-68
2023/04/06 05:16:54;;;;;;;27.57;14.00;;;;;;;2.63;53.22;96402.84;4926708;29;20277;-69
2023/04/06 05:19:20;;;;;;;18.20;11.73;;;;;;;2.64;53.18;96408.00;4933038;28;20221;-69
2023/04/06 05:21:45;;;;;;;18.97;13.13;;;;;;;2.83;52.67;96405.16;4956219;28;20182;-69
2023/04/06 05:24:11;;;;;;;22.47;12.40;;;;;;;2.99;52.18;96404.06;4951621;28;20202;-69
2023/04/06 05:26:36;;;;;;;13.70;11.80;;;;;;;3.21;51.89;96411.53;4949020;28;20167;-68
2023/04/06 05:29:02;;;;;;;17.10;11.03;;;;;;;3.02;53.13;96400.56;4961206;28;20275;-69
2023/04/06 05:31:27;;;;;;;16.30;11.97;;;;;;;2.94;53.25;96417.09;4956821;28;20182;-68
2023/04/06 05:33:53;;;;;;;16.17;12.83;;;;;;;2.79;53.62;96414.72;4952098;28;20185;-68
2023/04/06 05:36:18;;;;;;;15.57;12.33;;;;;;;2.94;53.27;96413.66;4967501;28;20573;-69
2023/04/06 05:38:44;;;;;;;14.43;11.70;;;;;;;3.12;52.42;96412.56;4957194;28;20197;-69
2023/04/06 05:41:10;;;;;;;16.10;11.70;;;;;;;3.62;51.34;96417.84;4951464;28;20939;-69
2023/04/06 05:43:36;;;;;;;17.27;12.50;;;;;;;4.36;49.22;96420.81;4965408;28;20207;-68
2023/04/06 05:46:01;;;;;;;20.17;13.50;;;;;;;5.12;47.15;96414.94;4955453;28;20173;-68
2023/04/06 05:48:27;;;;;;;23.33;12.90;;;;;;;5.84;45.05;96409.78;4953750;28;20463;-68
2023/04/06 05:50:55;;;;;;;20.43;11.37;;;;;;;6.46;44.06;96412.53;4956843;28;20557;-67
2023/04/06 05:53:21;;;;;;;27.83;12.80;;;;;;;6.94;42.35;96412.00;4949205;28;20841;-68
2023/04/06 05:55:47;;;;;;;18.53;12.47;;;;;;;7.46;41.37;96413.94;4956391;28;20473;-68
2023/04/06 05:58:12;;;;;;;15.23;12.03;;;;;;;7.95;40.02;96412.38;4974011;28;20259;-68
2023/04/06 06:00:38;;;;;;;17.50;12.10;;;;;;;8.20;38.91;96412.41;4961339;28;20196;-69
2023/04/06 06:03:04;;;;;;;21.80;13.70;;;;;;;8.35;39.03;96408.41;4971619;28;20536;-68
2023/04/06 06:05:30;;;;;;;24.10;13.30;;;;;;;8.43;38.48;96412.50;4974752;28;20174;-68
2023/04/06 06:07:55;;;;;;;30.63;14.67;;;;;;;8.53;37.97;96410.41;4963683;28;20267;-66
2023/04/06 06:10:21;;;;;;;23.23;13.97;;;;;;;8.97;37.27;96405.28;4977257;28;20648;-68
2023/04/06 06:12:46;;;;;;;22.23;12.80;;;;;;;8.65;37.73;96417.81;4967503;28;20206;-65
2023/04/06 06:15:12;;;;;;;21.23;13.23;;;;;;;7.33;39.70;96416.94;4970826;28;20219;-67
2023/04/06 06:17:38;;;;;;;19.30;13.40;;;;;;;7.84;40.28;96418.81;4956763;28;20178;-65
2023/04/06 06:20:08;;;;;;;22.33;13.43;;;;;;;8.35;39.14;96411.88;4948105;28;20223;-67
2023/04/06 06:22:33;;;;;;;21.00;13.70;;;;;;;7.87;39.46;96420.47;4948204;28;20466;-68
2023/04/06 06:24:59;;;;;;;43.17;16.33;;;;;;;8.24;38.75;96425.31;4947901;28;20414;-68
2023/04/06 06:27:24;;;;;;;28.73;13.80;;;;;;;8.02;38.46;96413.88;4947890;28;20188;-68
2023/04/06 06:29:50;;;;;;;17.43;13.50;;;;;;;8.26;38.84;96414.78;4948217;28;20198;-67
2023/04/06 06:32:15;;;;;;;18.33;12.57;;;;;;;8.62;37.66;96420.53;4965063;28;20173;-67
2023/04/06 06:34:41;;;;;;;20.30;13.60;;;;;;;7.01;41.17;96423.13;4967051;28;20213;-67
2023/04/06 06:37:06;;;;;;;17.30;13.57;;;;;;;7.51;40.12;96417.28;4966526;28;20667;-65
2023/04/06 06:39:32;;;;;;;14.57;12.97;;;;;;;8.18;39.12;96416.84;4967028;28;20632;-65
2023/04/06 06:42:00;;;;;;;15.70;13.40;;;;;;;8.21;39.05;96417.56;4968864;28;20272;-66
2023/04/06 06:44:26;;;;;;;24.30;12.70;;;;;;;8.20;39.12;96420.25;4969560;28;20166;-67
2023/04/06 06:46:51;;;;;;;19.23;15.03;;;;;;;7.19;40.26;96429.56;4969074;28;20456;-65
2023/04/06 06:49:17;;;;;;;15.70;14.07;;;;;;;7.60;40.17;96430.03;4969267;28;20181;-66
2023/04/06 06:51:42;;;;;;;15.23;13.20;;;;;;;8.16;39.50;96419.50;4963156;28;20192;-66
2023/04/06 06:54:08;;;;;;;17.17;14.33;;;;;;;7.98;39.78;96428.78;4958894;28;20205;-66
2023/04/06 06:56:35;;;;;;;19.37;13.27;;;;;;;8.47;38.95;96427.16;4971607;28;20269;-66
2023/04/06 06:59:01;;;;;;;15.90;14.23;;;;;;;8.95;38.38;96416.72;4972223;28;20193;-65
2023/04/06 07:01:26;;;;;;;15.30;13.60;;;;;;;9.66;36.79;96409.63;4955392;28;20554;-65
2023/04/06 07:03:52;;;;;;;22.33;13.53;;;;;;;10.33;35.26;96411.28;4950380;28;20183;-66
2023/04/06 07:06:17;;;;;;;19.93;14.67;;;;;;;10.12;35.46;96415.63;4967837;28;20527;-66
2023/04/06 07:08:43;;;;;;;17.00;14.20;;;;;;;9.91;36.01;96410.34;4958636;28;20209;-66
2023/04/06 07:11:08;;;;;;;18.80;14.70;;;;;;;9.89;36.58;96411.31;4986506;28;20177;-67
2023/04/06 07:13:34;;;;;;;20.43;14.77;;;;;;;10.69;34.71;96407.97;4962601;28;20258;-67
2023/04/06 07:15:59;;;;;;;19.40;15.63;;;;;;;10.27;36.09;96411.50;4949239;28;20847;-65
2023/04/06 07:18:25;;;;;;;18.40;16.50;;;;;;;9.46;36.69;96416.50;4949760;28;20562;-66
2023/04/06 07:20:50;;;;;;;26.73;19.07;;;;;;;10.75;35.17;96419.06;4949558;28;20174;-66
2023/04/06 07:23:16;;;;;;;25.17;16.87;;;;;;;10.68;35.41;96417.63;4949483;28;21197;-66
2023/04/06 07:25:41;;;;;;;19.10;16.13;;;;;;;10.16;35.94;96419.81;4949502;28;20185;-66
2023/04/06 07:28:07;;;;;;;17.70;14.80;;;;;;;10.34;36.28;96408.56;4949329;28;20198;-69
2023/04/06 07:30:32;;;;;;;24.50;17.80;;;;;;;10.23;35.87;96420.41;4953005;28;20173;-70
2023/04/06 07:33:01;;;;;;;25.93;17.43;;;;;;;11.05;34.59;96408.06;4961883;28;20632;-67
2023/04/06 07:35:27;;;;;;;18.87;16.30;;;;;;;10.98;34.05;96411.91;4966671;28;20745;-68
2023/04/06 07:38:01;;;;;;;19.80;15.67;;;;;;;10.38;35.31;96411.91;4962419;28;20911;-70
2023/04/06 07:40:27;;;;;;;35.13;20.13;;;;;;;10.29;36.54;96415.78;4961384;28;20444;-68
2023/04/06 07:42:52;;;;;;;27.50;19.60;;;;;;;11.13;34.63;96413.00;4948471;28;20418;-69
2023/04/06 07:45:18;;;;;;;21.07;18.80;;;;;;;11.00;34.09;96416.16;4948305;28;20170;-68
2023/04/06 07:47:44;;;;;;;22.80;18.83;;;;;;;10.54;35.09;96420.00;4948099;28;20193;-69
2023/04/06 07:50:10;;;;;;;20.00;17.77;;;;;;;10.70;35.73;96415.78;4948444;28;20754;-67
2023/04/06 07:52:35;;;;;;;24.00;16.53;;;;;;;10.37;35.89;96413.69;4948451;28;20174;-69
2023/04/06 07:55:01;;;;;;;21.43;16.80;;;;;;;10.41;36.75;96416.19;4948612;28;21248;-67
2023/04/06 07:57:26;;;;;;;17.47;15.67;;;;;;;11.75;34.21;96416.22;4948377;28;20326;-68
2023/04/06 07:59:52;;;;;;;17.10;15.30;;;;;;;11.18;34.51;96411.00;4948700;29;20248;-68
2023/04/06 08:02:18;;;;;;;18.17;15.00;;;;;;;11.14;35.11;96418.16;4948502;28;20217;-68
2023/04/06 08:04:44;;;;;;;22.13;14.77;;;;;;;11.91;34.23;96422.47;4948482;29;20476;-68
2023/04/06 08:07:09;;;;;;;18.43;14.90;;;;;;;12.01;33.55;96418.44;4948267;29;20228;-67
2023/04/06 08:09:35;;;;;;;22.80;14.30;;;;;;;12.87;32.27;96407.94;4948534;28;20198;-69
2023/04/06 08:12:00;;;;;;;18.23;14.63;;;;;;;13.07;31.10;96405.09;4948499;28;20551;-68
2023/04/06 08:14:26;;;;;;;24.60;14.77;;;;;;;12.81;31.31;96403.84;4948271;29;21260;-68
2023/04/06 08:16:51;;;;;;;16.97;14.13;;;;;;;13.00;31.47;96408.16;4947865;28;20189;-69
2023/04/06 08:19:18;;;;;;;15.57;14.03;;;;;;;13.64;29.59;96406.44;4947905;29;20244;-68
2023/04/06 08:21:45;;;;;;;17.00;13.90;;;;;;;13.94;29.56;96399.44;4948184;28;20177;-68
2023/04/06 08:24:11;;;;;;;18.83;13.83;;;;;;;13.86;29.11;96406.91;4947924;28;20417;-68
2023/04/06 08:26:36;;;;;;;14.13;12.70;;;;;;;14.02;28.51;96401.63;4948831;28;20923;-68
2023/04/06 08:29:03;;;;;;;15.80;14.23;;;;;;;14.09;27.70;96402.13;4952046;29;20329;-69
2023/04/06 08:31:30;;;;;;;14.87;13.37;;;;;;;14.23;27.90;96396.06;4952021;28;20257;-69
2023/04/06 08:33:56;;;;;;;16.23;14.53;;;;;;;14.28;27.99;96394.00;4952184;28;20497;-69
2023/04/06 08:36:22;;;;;;;17.93;13.13;;;;;;;14.52;27.24;96404.88;4963235;28;20500;-69
2023/04/06 08:38:49;;;;;;;14.23;12.77;;;;;;;14.40;27.16;96402.03;4971529;28;20216;-69
2023/04/06 08:41:16;;;;;;;15.47;14.00;;;;;;;14.08;26.98;96403.94;4971195;28;20774;-69
2023/04/06 08:44:00;;;;;;;14.90;13.30;;;;;;;14.04;26.19;96402.41;4971344;28;20428;-69
2023/04/06 08:46:30;;;;;;;14.20;12.40;;;;;;;14.02;27.28;96404.28;4970949;28;20420;-68
2023/04/06 08:49:00;;;;;;;13.80;12.37;;;;;;;14.09;27.41;96405.63;4971462;28;20437;-69
2023/04/06 08:51:26;;;;;;;15.17;12.50;;;;;;;14.47;26.46;96399.88;4971497;28;20413;-67
2023/04/06 08:53:59;;;;;;;15.97;12.63;;;;;;;14.41;26.37;96394.97;4971119;28;20806;-68
2023/04/06 08:56:26;;;;;;;14.30;12.80;;;;;;;14.00;26.63;96395.59;4970960;28;20464;-69
2023/04/06 08:58:53;;;;;;;18.37;12.83;;;;;;;13.42;28.28;96399.75;4971363;28;20442;-69
2023/04/06 09:01:27;;;;;;;15.63;14.00;;;;;;;12.57;28.81;96399.88;4967419;28;20564;-69
2023/04/06 09:04:00;;;;;;;17.00;12.20;;;;;;;12.74;28.88;96399.84;4951746;28;20500;-69
2023/04/06 09:06:30;;;;;;;15.03;13.50;;;;;;;13.27;27.63;96396.13;4951142;28;20509;-68
2023/04/06 09:08:56;;;;;;;14.53;13.00;;;;;;;13.39;26.77;96388.50;4951771;28;20516;-68
2023/04/06 09:11:22;;;;;;;16.17;14.57;;;;;;;13.86;26.41;96383.19;4951785;28;20417;-70
2023/04/06 09:13:53;;;;;;;14.90;12.30;;;;;;;14.56;25.83;96374.75;4951601;28;20186;-68
2023/04/06 09:16:19;;;;;;;29.63;14.50;;;;;;;14.94;25.21;96371.56;4951212;28;20281;-67
2023/04/06 09:18:46;;;;;;;18.90;12.87;;;;;;;14.98;25.53;96378.38;4951750;28;20444;-67
2023/04/06 09:21:11;;;;;;;15.23;13.63;;;;;;;14.46;26.03;96381.50;4951437;28;20787;-69
2023/04/06 09:23:38;;;;;;;15.33;13.80;;;;;;;15.17;25.60;96380.72;4949785;28;20422;-69
2023/04/06 09:26:12;;;;;;;22.83;15.97;;;;;;;15.23;25.97;96378.50;4951100;28;20198;-69
2023/04/06 09:28:53;;;;;;;17.17;15.07;;;;;;;13.59;27.87;96380.34;4951896;28;20438;-69
2023/04/06 09:31:26;;;;;;;18.37;13.63;;;;;;;13.92;27.78;96379.38;4951330;28;20509;-69
2023/04/06 09:33:52;;;;;;;15.65;14.05;;;;;;;13.15;28.96;96386.25;4950728;28;20454;-71
2023/04/06 09:36:18;;;;;;;32.30;15.97;;;;;;;12.29;29.20;96394.25;4951103;28;20602;-69
2023/04/06 09:38:58;;;;;;;16.20;13.20;;;;;;;13.46;28.61;96388.06;4949596;28;20939;-68
2023/04/06 09:41:28;;;;;;;21.10;14.87;;;;;;;13.54;27.57;96380.59;4951239;28;20457;-70
2023/04/06 09:44:11;;;;;;;16.27;13.60;;;;;;;13.49;27.21;96373.88;4951316;28;20785;-69
2023/04/06 09:46:39;;;;;;;19.73;12.77;;;;;;;13.34;27.63;96381.69;4950708;28;20410;-69
2023/04/06 09:49:07;;;;;;;29.20;14.50;;;;;;;14.26;26.14;96366.84;4950813;29;20464;-68
2023/04/06 09:51:37;;;;;;;44.93;15.07;;;;;;;14.97;24.47;96363.44;4950875;29;20410;-67
2023/04/06 09:54:05;;;;;;;18.27;13.77;;;;;;;14.91;24.07;96363.84;4951007;28;20827;-68
2023/04/06 09:56:47;;;;;;;14.60;12.10;;;;;;;13.95;24.55;96366.81;4950522;28;20465;-70
2023/04/06 09:59:38;;;;;;;17.87;12.47;;;;;;;14.14;24.75;96360.50;4951082;28;20510;-69
2023/04/06 10:02:08;;;;;;;21.80;12.57;;;;;;;15.12;23.66;96354.56;4958815;28;20437;-70
2023/04/06 10:04:39;;;;;;;20.03;12.90;;;;;;;15.39;22.90;96362.53;4970403;28;20420;-68
2023/04/06 10:07:07;;;;;;;14.73;12.00;;;;;;;13.83;23.09;96364.91;4969717;28;21281;-67
2023/04/06 10:09:35;;;;;;;14.40;10.23;;;;;;;12.98;24.21;96355.53;4970252;28;20428;-67
2023/04/06 10:12:05;;;;;;;32.80;13.53;;;;;;;13.41;24.62;96349.72;4969711;28;20420;-69
2023/04/06 10:14:36;;;;;;;46.70;14.80;;;;;;;13.95;24.30;96358.06;4968433;28;20425;-69
2023/04/06 10:17:03;;;;;;;14.67;11.10;;;;;;;12.71;24.30;96356.09;4969880;28;20428;-71
2023/04/06 10:19:36;;;;;;;18.90;11.67;;;;;;;13.08;24.23;96350.63;4969727;28;20468;-68
2023/04/06 10:22:05;;;;;;;13.90;11.17;;;;;;;13.30;24.04;96352.97;4969809;28;20417;-68
2023/04/06 10:24:30;;;;;;;12.63;10.53;;;;;;;12.28;25.33;96352.22;4960039;28;20428;-67
2023/04/06 10:27:02;;;;;;;14.50;11.33;;;;;;;11.97;26.74;96360.81;4949827;28;20414;-69
2023/04/06 10:29:27;;;;;;;15.80;11.90;;;;;;;12.21;26.87;96361.34;4950105;28;20288;-67
2023/04/06 10:31:55;;;;;;;17.47;11.07;;;;;;;13.03;25.75;96348.25;4951293;28;20576;-67
2023/04/06 10:34:20;;;;;;;22.10;11.90;;;;;;;13.98;25.02;96334.13;4959623;28;20178;-69
2023/04/06 10:36:46;;;;;;;17.30;12.07;;;;;;;13.73;25.10;96342.66;4968736;28;21180;-69
2023/04/06 10:39:11;;;;;;;20.53;12.03;;;;;;;12.90;25.97;96350.69;4953552;28;20573;-68
2023/04/06 10:41:46;;;;;;;11.40;9.97;;;;;;;13.26;24.50;96352.25;4949290;28;20186;-67
2023/04/06 10:44:21;;;;;;;12.17;9.90;;;;;;;13.39;25.11;96351.59;4960760;28;20180;-67
2023/04/06 10:46:55;;;;;;;13.27;11.03;;;;;;;12.75;25.76;96346.25;4968573;28;20508;-68
2023/04/06 10:49:21;;;;;;;12.07;10.27;;;;;;;13.94;24.74;96332.66;4968636;28;20433;-68
2023/04/06 10:51:52;;;;;;;13.47;9.70;;;;;;;14.65;23.84;96328.47;4968308;28;21163;-67
2023/04/06 10:54:19;;;;;;;21.97;10.70;;;;;;;15.28;22.39;96319.22;4969733;28;20177;-68
2023/04/06 10:56:44;;;;;;;32.93;12.00;;;;;;;15.38;22.19;96331.75;4969501;28;20543;-68
2023/04/06 10:59:10;;;;;;;17.33;10.60;;;;;;;15.50;22.32;96334.56;4969394;28;20605;-67
2023/04/06 11:01:36;;;;;;;20.60;10.17;;;;;;;15.56;22.20;96329.72;4963929;28;20170;-68
2023/04/06 11:04:02;;;;;;;18.77;10.90;;;;;;;14.82;23.25;96326.47;4967072;28;20796;-68
2023/04/06 11:06:31;;;;;;;10.47;8.43;;;;;;;15.41;22.24;96328.06;4951298;28;20205;-69
2023/04/06 11:08:57;;;;;;;11.00;9.17;;;;;;;15.50;21.63;96321.34;4960551;28;20433;-68
2023/04/06 11:11:26;;;;;;;17.67;10.20;;;;;;;15.52;21.59;96332.66;4949903;28;20492;-68
2023/04/06 11:13:59;;;;;;;17.03;10.50;;;;;;;15.65;21.39;96322.97;4963438;28;20483;-68
2023/04/06 11:16:32;;;;;;;19.03;10.87;;;;;;;15.59;21.19;96323.38;4968468;28;20468;-67
2023/04/06 11:18:59;;;;;;;13.77;9.57;;;;;;;15.57;21.04;96325.28;4968859;28;20476;-69
2023/04/06 11:21:51;;;;;;;12.00;10.20;;;;;;;14.81;20.92;96313.34;4968816;28;20423;-67